createdAt,value
2023-03-10T00:01:21.828Z,98326.25
2023-03-10T00:03:49.916Z,98326.16
2023-03-10T00:06:19.748Z,98316.72
2023-03-10T00:08:47.186Z,98320.22
2023-03-10T00:11:14.873Z,98322.06
2023-03-10T00:13:42.242Z,98328.00
2023-03-10T00:16:16.524Z,98329.03
2023-03-10T00:18:43.664Z,98327.53
2023-03-10T00:21:15.802Z,98304.25
2023-03-10T00:23:42.997Z,98328.81
2023-03-10T00:26:13.475Z,98332.44
2023-03-10T00:28:40.913Z,98340.34
2023-03-10T00:31:12.704Z,98343.72
2023-03-10T00:33:39.868Z,98341.16
2023-03-10T00:36:21.775Z,98329.47
2023-03-10T00:38:51.116Z,98346.88
2023-03-10T00:41:23.470Z,98349.66
2023-03-10T00:43:51.514Z,98338.69
2023-03-10T00:46:19.854Z,98345.47
2023-03-10T00:48:46.980Z,98338.81
2023-03-10T00:51:14.228Z,98340.78
2023-03-10T00:53:41.783Z,98343.13
2023-03-10T00:56:25.901Z,98343.94
2023-03-10T00:58:56.136Z,98342.38
2023-03-10T01:01:29.612Z,98342.59
2023-03-10T01:04:01.511Z,98346.72
2023-03-10T01:06:29.411Z,98348.19
2023-03-10T01:08:56.769Z,98343.66
2023-03-10T01:11:27.008Z,98352.16
2023-03-10T01:13:57.235Z,98348.19
2023-03-10T01:16:24.887Z,98349.19
2023-03-10T01:18:51.936Z,98355.25
2023-03-10T01:21:24.492Z,98346.63
2023-03-10T01:23:51.913Z,98346.13
2023-03-10T01:26:19.621Z,98340.47
2023-03-10T01:28:48.802Z,98347.47
2023-03-10T01:31:17.547Z,98337.91
2023-03-10T01:33:45.755Z,98335.56
2023-03-10T01:36:19.705Z,98341.22
2023-03-10T01:38:51.107Z,98344.91
2023-03-10T01:41:18.852Z,98350.03
2023-03-10T01:43:48.408Z,98344.41
2023-03-10T01:46:39.971Z,98355.25
2023-03-10T01:49:17.581Z,98343.97
2023-03-10T01:51:50.835Z,98356.81
2023-03-10T01:54:23.578Z,98363.44
2023-03-10T01:56:52.279Z,98360.00
2023-03-10T01:59:20.838Z,98360.69
2023-03-10T02:01:50.487Z,98371.97
2023-03-10T02:04:47.287Z,98366.00
2023-03-10T02:07:18.861Z,98373.59
2023-03-10T02:09:49.062Z,98369.41
2023-03-10T02:12:16.958Z,98373.59
2023-03-10T02:14:46.626Z,98379.16
2023-03-10T02:17:17.281Z,98385.31
2023-03-10T02:20:06.185Z,98391.78
2023-03-10T02:22:33.272Z,98385.50
2023-03-10T02:25:12.179Z,98391.47
2023-03-10T02:27:40.327Z,98383.44
2023-03-10T02:30:11.762Z,98392.88
2023-03-10T02:32:42.656Z,98413.31
2023-03-10T02:35:10.743Z,98413.41
2023-03-10T02:37:46.367Z,98409.09
2023-03-10T02:40:35.011Z,98415.88
2023-03-10T02:43:16.793Z,98421.59
2023-03-10T02:45:46.878Z,98420.91
2023-03-10T02:48:20.354Z,98406.03
2023-03-10T02:50:48.109Z,98435.22
2023-03-10T02:53:19.510Z,98420.91
2023-03-10T02:55:48.849Z,98412.47
2023-03-10T02:58:16.434Z,98419.44
2023-03-10T03:00:46.225Z,98425.50
2023-03-10T03:03:16.959Z,98423.75
2023-03-10T03:05:45.950Z,98429.00
2023-03-10T03:08:13.997Z,98433.28
2023-03-10T03:10:42.177Z,98429.19
2023-03-10T03:13:10.784Z,98433.81
2023-03-10T03:15:38.510Z,98434.31
2023-03-10T03:18:05.934Z,98440.03
2023-03-10T03:20:36.842Z,98440.31
2023-03-10T03:23:04.277Z,98440.41
2023-03-10T03:25:36.188Z,98450.66
2023-03-10T03:28:03.577Z,98451.06
2023-03-10T03:30:30.956Z,98459.13
2023-03-10T03:32:59.416Z,98458.03
2023-03-10T03:35:30.846Z,98458.84
2023-03-10T03:37:58.547Z,98452.91
2023-03-10T03:40:27.939Z,98460.69
2023-03-10T03:42:58.171Z,98446.13
2023-03-10T03:45:27.734Z,98463.53
2023-03-10T03:47:56.493Z,98464.31
2023-03-10T03:50:25.598Z,98475.91
2023-03-10T03:52:55.761Z,98464.41
2023-03-10T03:55:25.319Z,98473.75
2023-03-10T03:57:53.010Z,98472.72
2023-03-10T04:00:22.921Z,98474.75
2023-03-10T04:02:56.431Z,98468.81
2023-03-10T04:05:24.068Z,98480.16
2023-03-10T04:07:51.321Z,98482.09
2023-03-10T04:10:23.854Z,98475.13
2023-03-10T04:12:51.148Z,98489.28
2023-03-10T04:15:18.286Z,98487.81
2023-03-10T04:17:45.307Z,98484.13
2023-03-10T04:20:15.799Z,98490.06
2023-03-10T04:22:46.810Z,98500.47
2023-03-10T04:25:14.736Z,98501.38
2023-03-10T04:27:41.900Z,98508.25
2023-03-10T04:30:12.331Z,98507.16
2023-03-10T04:32:41.244Z,98515.00
2023-03-10T04:35:12.844Z,98517.44
2023-03-10T04:37:41.587Z,98516.31
2023-03-10T04:40:12.874Z,98529.84
2023-03-10T04:42:41.242Z,98527.47
2023-03-10T04:45:09.044Z,98539.00
2023-03-10T04:47:36.119Z,98533.53
2023-03-10T04:50:04.096Z,98528.22
2023-03-10T04:52:31.211Z,98527.38
2023-03-10T04:54:58.355Z,98540.34
2023-03-10T04:57:25.309Z,98540.09
2023-03-10T04:59:53.605Z,98548.41
2023-03-10T05:02:21.925Z,98554.19
2023-03-10T05:04:49.176Z,98553.50
2023-03-10T05:07:16.414Z,98555.25
2023-03-10T05:09:48.751Z,98557.63
2023-03-10T05:12:15.944Z,98572.00
2023-03-10T05:14:43.077Z,98564.84
2023-03-10T05:17:11.269Z,98574.28
2023-03-10T05:19:39.067Z,98584.88
2023-03-10T05:22:07.711Z,98590.44
2023-03-10T05:24:37.405Z,98593.09
2023-03-10T05:27:04.874Z,98591.09
2023-03-10T05:29:37.956Z,98593.09
2023-03-10T05:32:11.627Z,98599.31
2023-03-10T05:34:40.605Z,98604.22
2023-03-10T05:37:07.988Z,98599.88
2023-03-10T05:39:34.982Z,98609.56
2023-03-10T05:42:06.371Z,98608.53
2023-03-10T05:44:34.969Z,98614.22
2023-03-10T05:47:04.363Z,98616.28
2023-03-10T05:49:31.967Z,98613.53
2023-03-10T05:51:59.442Z,98625.16
2023-03-10T05:54:26.613Z,98622.44
2023-03-10T05:56:53.743Z,98633.84
2023-03-10T05:59:23.914Z,98637.50
2023-03-10T06:01:52.215Z,98640.59
2023-03-10T06:04:19.790Z,98649.31
2023-03-10T06:06:46.940Z,98653.53
2023-03-10T06:09:13.904Z,98651.56
2023-03-10T06:11:40.877Z,98657.59
2023-03-10T06:14:07.929Z,98660.88
2023-03-10T06:16:35.054Z,98656.09
2023-03-10T06:19:02.114Z,98674.84
2023-03-10T06:21:31.823Z,98668.06
2023-03-10T06:23:59.542Z,98675.66
2023-03-10T06:26:26.775Z,98675.22
2023-03-10T06:28:53.674Z,98683.38
2023-03-10T06:31:24.991Z,98686.75
2023-03-10T06:33:52.855Z,98689.25
2023-03-10T06:36:21.480Z,98687.66
2023-03-10T06:38:49.577Z,98682.13
2023-03-10T06:41:17.129Z,98694.31
2023-03-10T06:43:44.131Z,98705.44
2023-03-10T06:46:11.938Z,98702.53
2023-03-10T06:48:40.076Z,98707.34
2023-03-10T06:51:18.918Z,98710.28
2023-03-10T06:53:46.913Z,98715.56
2023-03-10T06:56:16.915Z,98718.84
2023-03-10T06:58:44.940Z,98722.88
2023-03-10T07:01:22.634Z,98720.47
2023-03-10T07:03:49.692Z,98716.56
2023-03-10T07:06:16.735Z,98733.13
2023-03-10T07:08:43.799Z,98729.00
2023-03-10T07:11:11.144Z,98727.78
2023-03-10T07:13:38.823Z,98736.94
2023-03-10T07:16:06.169Z,98742.72
2023-03-10T07:18:33.579Z,98742.28
2023-03-10T07:21:00.504Z,98747.19
2023-03-10T07:23:27.756Z,98748.03
2023-03-10T07:25:56.766Z,98749.00
2023-03-10T07:28:24.892Z,98760.78
2023-03-10T07:30:52.462Z,98761.09
2023-03-10T07:33:19.502Z,98759.94
2023-03-10T07:35:46.635Z,98759.63
2023-03-10T07:38:13.772Z,98762.50
2023-03-10T07:40:40.916Z,98765.06
2023-03-10T07:43:07.867Z,98759.72
2023-03-10T07:45:35.706Z,98763.16
2023-03-10T07:48:02.647Z,98758.47
2023-03-10T07:50:29.680Z,98767.88
2023-03-10T07:52:56.892Z,98769.91
2023-03-10T07:55:23.960Z,98768.44
2023-03-10T07:57:51.681Z,98775.75
2023-03-10T08:00:18.944Z,98775.13
2023-03-10T08:02:45.961Z,98773.75
2023-03-10T08:05:14.872Z,98783.63
2023-03-10T08:07:43.725Z,98782.38
2023-03-10T08:10:12.515Z,98779.09
2023-03-10T08:12:41.536Z,98787.22
2023-03-10T08:15:09.322Z,98786.69
2023-03-10T08:17:37.143Z,98787.28
2023-03-10T08:20:06.816Z,98783.84
2023-03-10T08:22:34.572Z,98788.25
2023-03-10T08:25:02.225Z,98798.94
2023-03-10T08:27:30.456Z,98792.44
2023-03-10T08:29:57.449Z,98809.00
2023-03-10T08:32:24.528Z,98797.28
2023-03-10T08:34:51.621Z,98802.53
2023-03-10T08:37:18.873Z,98796.03
2023-03-10T08:39:46.605Z,98810.69
2023-03-10T08:42:14.216Z,98810.22
2023-03-10T08:44:41.951Z,98811.13
2023-03-10T08:47:11.847Z,98821.53
2023-03-10T08:49:39.079Z,98824.03
2023-03-10T08:52:06.319Z,98824.03
2023-03-10T08:54:33.893Z,98833.38
2023-03-10T08:57:01.303Z,98825.75
2023-03-10T08:59:28.504Z,98831.94
2023-03-10T09:01:55.450Z,98833.84
2023-03-10T09:04:22.858Z,98841.81
2023-03-10T09:06:49.808Z,98828.69
2023-03-10T09:09:16.799Z,98839.25
2023-03-10T09:11:44.121Z,98840.75
2023-03-10T09:14:12.125Z,98835.50
2023-03-10T09:16:40.428Z,98835.97
2023-03-10T09:19:08.164Z,98843.78
2023-03-10T09:21:35.384Z,98830.84
2023-03-10T09:24:03.045Z,98840.38
2023-03-10T09:26:30.452Z,98851.94
2023-03-10T09:28:57.593Z,98852.41
2023-03-10T09:31:35.892Z,98849.94
2023-03-10T09:34:03.504Z,98851.44
2023-03-10T09:36:30.407Z,98846.88
2023-03-10T09:38:58.979Z,98853.69
2023-03-10T09:42:03.541Z,98853.09
2023-03-10T09:44:45.530Z,98861.22
2023-03-10T09:48:05.031Z,98874.41
2023-03-10T09:50:44.619Z,98876.16
2023-03-10T09:53:30.120Z,98881.53
2023-03-10T09:55:57.891Z,98872.50
2023-03-10T09:58:39.439Z,98861.25
2023-03-10T10:01:13.291Z,98871.00
2023-03-10T10:03:52.616Z,98882.97
2023-03-10T10:06:32.631Z,98876.63
2023-03-10T10:09:05.535Z,98874.78
2023-03-10T10:11:34.979Z,98867.53
2023-03-10T10:14:29.330Z,98876.03
2023-03-10T10:17:06.480Z,98888.09
2023-03-10T10:19:36.864Z,98876.59
2023-03-10T10:22:16.114Z,98886.69
2023-03-10T10:25:00.517Z,98884.63
2023-03-10T10:27:27.445Z,98884.00
2023-03-10T10:29:54.408Z,98886.69
2023-03-10T10:32:21.476Z,98893.75
2023-03-10T10:34:49.407Z,98888.69
2023-03-10T10:37:38.801Z,98890.16
2023-03-10T10:40:24.607Z,98899.66
2023-03-10T10:42:56.967Z,98893.88
2023-03-10T10:45:36.988Z,98900.91
2023-03-10T10:48:05.133Z,98892.44
2023-03-10T10:50:34.688Z,98903.47
2023-03-10T10:53:13.983Z,98910.97
2023-03-10T10:55:42.859Z,98915.06
2023-03-10T10:58:31.408Z,98921.56
2023-03-10T11:01:02.426Z,98924.53
2023-03-10T11:03:33.069Z,98922.91
2023-03-10T11:06:01.347Z,98928.69
2023-03-10T11:08:43.093Z,98932.47
2023-03-10T11:11:29.540Z,98938.66
2023-03-10T11:14:17.456Z,98946.38
2023-03-10T11:17:00.182Z,98952.16
2023-03-10T11:19:33.074Z,98950.59
2023-03-10T11:22:07.731Z,98959.31
2023-03-10T11:24:47.549Z,98958.91
2023-03-10T11:27:19.939Z,98964.25
2023-03-10T11:30:11.708Z,98966.19
2023-03-10T11:33:05.829Z,98975.59
2023-03-10T11:35:43.965Z,98977.00
2023-03-10T11:38:38.019Z,98977.25
2023-03-10T11:41:16.245Z,98971.53
2023-03-10T11:44:00.029Z,98991.81
2023-03-10T11:46:44.619Z,98982.09
2023-03-10T11:49:15.166Z,98986.16
2023-03-10T11:51:44.846Z,98991.63
2023-03-10T11:54:26.351Z,99001.47
2023-03-10T11:56:54.657Z,99002.31
2023-03-10T11:59:29.287Z,99008.38
2023-03-10T12:02:17.934Z,99012.25
2023-03-10T12:05:00.284Z,99019.88
2023-03-10T12:07:34.681Z,99018.44
2023-03-10T12:10:10.496Z,99022.03
2023-03-10T12:12:44.920Z,99030.69
2023-03-10T12:15:19.559Z,99041.50
2023-03-10T12:17:49.220Z,99033.88
2023-03-10T12:20:19.174Z,99033.97
2023-03-10T12:22:50.364Z,99031.09
2023-03-10T12:25:30.456Z,99029.75
2023-03-10T12:28:16.698Z,99038.19
2023-03-10T12:30:48.549Z,99039.84
2023-03-10T12:33:44.207Z,99027.72
2023-03-10T12:36:32.062Z,99046.84
2023-03-10T12:39:01.254Z,99049.00
2023-03-10T12:41:30.873Z,99050.03
2023-03-10T12:44:32.575Z,99057.88
2023-03-10T12:47:08.770Z,99058.44
2023-03-10T12:49:41.994Z,99051.56
2023-03-10T12:52:31.633Z,99062.75
2023-03-10T12:55:24.571Z,99058.28
2023-03-10T12:57:58.300Z,99061.13
2023-03-10T13:00:31.615Z,99066.50
2023-03-10T13:03:05.407Z,99066.00
2023-03-10T13:05:35.875Z,99082.41
2023-03-10T13:08:12.475Z,99076.09
2023-03-10T13:10:40.473Z,99075.16
2023-03-10T13:13:14.627Z,99084.53
2023-03-10T13:15:41.685Z,99081.19
2023-03-10T13:18:21.872Z,99087.38
2023-03-10T13:20:54.598Z,99089.06
2023-03-10T13:23:35.487Z,99086.63
2023-03-10T13:26:02.989Z,99093.81
2023-03-10T13:28:35.683Z,99097.97
2023-03-10T13:31:20.331Z,99095.59
2023-03-10T13:33:53.280Z,99104.28
2023-03-10T13:36:34.214Z,99109.69
2023-03-10T13:39:04.648Z,99110.41
2023-03-10T13:41:37.736Z,99115.59
2023-03-10T13:44:04.825Z,99112.03
2023-03-10T13:46:34.190Z,99116.25
2023-03-10T13:49:07.652Z,99097.66
2023-03-10T13:51:37.109Z,99111.31
2023-03-10T13:54:21.635Z,99117.00
2023-03-10T13:57:16.791Z,99118.81
2023-03-10T13:59:44.440Z,99116.50
2023-03-10T14:02:18.428Z,99111.44
2023-03-10T14:04:52.714Z,99123.91
2023-03-10T14:07:30.841Z,99132.41
2023-03-10T14:10:03.964Z,99133.06
2023-03-10T14:12:48.201Z,99139.63
2023-03-10T14:15:15.074Z,99139.63
2023-03-10T14:17:43.624Z,99137.06
2023-03-10T14:20:12.974Z,99148.97
2023-03-10T14:22:43.373Z,99148.56
2023-03-10T14:25:21.317Z,99146.84
2023-03-10T14:27:59.793Z,99138.41
2023-03-10T14:30:31.732Z,99142.13
2023-03-10T14:33:01.107Z,99144.69
2023-03-10T14:35:30.240Z,99143.03
2023-03-10T14:37:57.869Z,99154.22
2023-03-10T14:40:26.460Z,99143.19
2023-03-10T14:43:01.564Z,99142.38
2023-03-10T14:45:34.771Z,99152.63
2023-03-10T14:48:27.045Z,99148.16
2023-03-10T14:51:05.270Z,99159.56
2023-03-10T14:53:36.650Z,99164.38
2023-03-10T14:56:04.617Z,99142.44
2023-03-10T14:58:35.547Z,99158.13
2023-03-10T15:01:10.205Z,99143.28
2023-03-10T15:03:38.375Z,99171.31
2023-03-10T15:06:06.241Z,99171.97
2023-03-10T15:08:34.088Z,99191.13
2023-03-10T15:11:02.032Z,99196.34
2023-03-10T15:13:29.540Z,99182.16
2023-03-10T15:15:56.620Z,99202.53
2023-03-10T15:18:27.319Z,99200.53
2023-03-10T15:20:59.099Z,99212.53
2023-03-10T15:23:30.469Z,99209.97
2023-03-10T15:26:09.473Z,99217.66
2023-03-10T15:28:37.729Z,99218.66
2023-03-10T15:31:05.805Z,99222.28
2023-03-10T15:33:34.480Z,99224.16
2023-03-10T15:36:01.754Z,99230.34
2023-03-10T15:38:29.153Z,99239.13
2023-03-10T15:40:57.790Z,99244.34
2023-03-10T15:43:25.156Z,99247.88
2023-03-10T15:45:52.315Z,99251.16
2023-03-10T15:48:19.349Z,99250.19
2023-03-10T15:50:49.730Z,99261.81
2023-03-10T15:53:16.691Z,99262.47
2023-03-10T15:55:43.822Z,99264.28
2023-03-10T15:58:11.483Z,99263.75
2023-03-10T16:00:38.592Z,99259.63
2023-03-10T16:03:05.710Z,99267.91
2023-03-10T16:05:32.794Z,99270.63
2023-03-10T16:07:59.742Z,99267.63
2023-03-10T16:10:26.943Z,99273.97
2023-03-10T16:12:53.857Z,99269.78
2023-03-10T16:15:20.899Z,99275.94
2023-03-10T16:17:47.943Z,99282.03
2023-03-10T16:20:16.973Z,99276.41
2023-03-10T16:22:43.961Z,99277.31
2023-03-10T16:25:17.138Z,99279.28
2023-03-10T16:27:45.381Z,99287.09
2023-03-10T16:30:14.618Z,99286.81
2023-03-10T16:32:45.528Z,99290.13
2023-03-10T16:35:12.447Z,99288.47
2023-03-10T16:37:39.569Z,99290.13
2023-03-10T16:40:07.893Z,99291.72
2023-03-10T16:42:35.930Z,99290.91
2023-03-10T16:45:04.590Z,99289.06
2023-03-10T16:47:31.893Z,99289.06
2023-03-10T16:49:58.953Z,99286.59
2023-03-10T16:52:25.837Z,99287.41
2023-03-10T16:54:58.124Z,99291.72
2023-03-10T16:57:25.284Z,99289.91
2023-03-10T16:59:52.301Z,99293.16
2023-03-10T17:02:19.285Z,99291.41
2023-03-10T17:04:46.387Z,99288.78
2023-03-10T17:07:14.328Z,99293.00
2023-03-10T17:09:41.352Z,99288.78
2023-03-10T17:12:08.529Z,99292.94
2023-03-10T17:14:35.514Z,99299.69
2023-03-10T17:17:02.606Z,99298.72
2023-03-10T17:19:30.373Z,99291.03
2023-03-10T17:21:58.530Z,99292.06
2023-03-10T17:24:26.090Z,99300.47
2023-03-10T17:26:53.617Z,99293.59
2023-03-10T17:29:27.345Z,99295.41
2023-03-10T17:31:54.300Z,99300.47
2023-03-10T17:34:21.308Z,99298.72
2023-03-10T17:36:51.725Z,99296.47
2023-03-10T17:39:21.282Z,99294.72
2023-03-10T17:41:49.213Z,99298.19
2023-03-10T17:44:16.990Z,99298.72
2023-03-10T17:46:44.089Z,99302.03
2023-03-10T17:49:15.850Z,99307.00
2023-03-10T17:51:44.532Z,99306.03
2023-03-10T17:54:13.925Z,99304.28
2023-03-10T17:56:41.081Z,99300.03
2023-03-10T17:59:12.768Z,99307.72
2023-03-10T18:01:40.379Z,99313.63
2023-03-10T18:04:07.694Z,99318.75
2023-03-10T18:06:36.142Z,99314.38
2023-03-10T18:09:07.369Z,99312.72
2023-03-10T18:11:35.092Z,99318.75
2023-03-10T18:14:03.783Z,99319.66
2023-03-10T18:16:33.863Z,99319.81
2023-03-10T18:19:01.169Z,99324.94
2023-03-10T18:21:28.675Z,99329.59
2023-03-10T18:23:56.130Z,99311.09
2023-03-10T18:26:27.481Z,99321.91
2023-03-10T18:28:54.715Z,99327.63
2023-03-10T18:31:24.460Z,99337.81
2023-03-10T18:33:51.910Z,99336.25
2023-03-10T18:36:20.147Z,99314.38
2023-03-10T18:38:48.235Z,99331.56
2023-03-10T18:41:19.812Z,99330.50
2023-03-10T18:43:47.303Z,99328.78
2023-03-10T18:46:14.647Z,99326.06
2023-03-10T18:48:41.903Z,99333.53
2023-03-10T18:51:10.331Z,99336.66
2023-03-10T18:53:38.010Z,99348.56
2023-03-10T18:56:05.882Z,99338.31
2023-03-10T18:58:33.247Z,99350.06
2023-03-10T19:01:00.367Z,99352.47
2023-03-10T19:03:31.233Z,99342.81
2023-03-10T19:06:01.564Z,99337.69
2023-03-10T19:08:28.453Z,99336.78
2023-03-10T19:10:57.535Z,99336.63
2023-03-10T19:13:26.231Z,99334.06
2023-03-10T19:15:53.388Z,99337.53
2023-03-10T19:18:21.277Z,99329.94
2023-03-10T19:20:48.269Z,99332.34
2023-03-10T19:23:15.390Z,99327.28
2023-03-10T19:25:42.902Z,99341.69
2023-03-10T19:28:10.053Z,99339.88
2023-03-10T19:30:37.126Z,99350.03
2023-03-10T19:33:04.225Z,99341.31
2023-03-10T19:35:31.349Z,99345.50
2023-03-10T19:37:58.287Z,99361.03
2023-03-10T19:40:25.313Z,99350.63
2023-03-10T19:42:52.547Z,99362.56
2023-03-10T19:45:19.824Z,99367.53
2023-03-10T19:47:47.387Z,99365.84
2023-03-10T19:50:17.277Z,99367.69
2023-03-10T19:52:45.818Z,99369.34
2023-03-10T19:55:19.857Z,99375.22
2023-03-10T19:57:51.040Z,99374.31
2023-03-10T20:00:31.186Z,99369.94
2023-03-10T20:02:58.803Z,99370.69
2023-03-10T20:05:27.009Z,99367.28
2023-03-10T20:07:54.260Z,99369.03
2023-03-10T20:10:21.122Z,99374.16
2023-03-10T20:12:48.165Z,99374.91
2023-03-10T20:15:15.189Z,99375.81
2023-03-10T20:17:42.261Z,99376.41
2023-03-10T20:20:10.954Z,99381.25
2023-03-10T20:22:47.885Z,99380.28
2023-03-10T20:25:16.185Z,99379.44
2023-03-10T20:27:43.983Z,99380.66
2023-03-10T20:30:19.184Z,99385.47
2023-03-10T20:32:46.377Z,99393.00
2023-03-10T20:35:14.776Z,99395.72
2023-03-10T20:37:51.738Z,99396.63
2023-03-10T20:40:24.017Z,99397.31
2023-03-10T20:42:52.388Z,99389.63
2023-03-10T20:45:19.440Z,99398.13
2023-03-10T20:47:48.116Z,99403.19
2023-03-10T20:50:16.392Z,99404.50
2023-03-10T20:52:44.431Z,99410.84
2023-03-10T20:55:20.856Z,99404.94
2023-03-10T20:57:49.587Z,99415.72
2023-03-10T21:00:19.395Z,99416.25
2023-03-10T21:02:47.850Z,99413.84
2023-03-10T21:05:15.472Z,99413.69
2023-03-10T21:07:42.779Z,99410.38
2023-03-10T21:10:12.397Z,99413.75
2023-03-10T21:12:40.657Z,99429.81
2023-03-10T21:15:09.467Z,99421.59
2023-03-10T21:17:36.688Z,99421.16
2023-03-10T21:20:08.216Z,99427.84
2023-03-10T21:22:36.871Z,99426.06
2023-03-10T21:25:06.943Z,99418.97
2023-03-10T21:27:35.640Z,99424.09
2023-03-10T21:30:08.097Z,99431.31
2023-03-10T21:32:35.029Z,99425.91
2023-03-10T21:35:02.664Z,99435.53
2023-03-10T21:37:47.548Z,99442.78
2023-03-10T21:40:18.178Z,99450.16
2023-03-10T21:42:45.941Z,99443.63
2023-03-10T21:45:18.996Z,99448.84
2023-03-10T21:47:46.420Z,99455.59
2023-03-10T21:50:15.585Z,99455.31
2023-03-10T21:52:42.619Z,99456.81
2023-03-10T21:55:17.943Z,99444.00
2023-03-10T21:57:45.040Z,99454.41
2023-03-10T22:00:12.924Z,99452.66
2023-03-10T22:02:40.083Z,99450.69
2023-03-10T22:05:07.494Z,99455.16
2023-03-10T22:07:34.652Z,99449.88
2023-03-10T22:10:01.762Z,99446.06
2023-03-10T22:12:30.472Z,99448.50
2023-03-10T22:14:57.910Z,99444.31
2023-03-10T22:17:26.335Z,99450.41
2023-03-10T22:19:56.881Z,99447.91
2023-03-10T22:22:23.895Z,99462.09
2023-03-10T22:24:50.998Z,99456.81
2023-03-10T22:27:18.011Z,99468.72
2023-03-10T22:29:45.976Z,99461.94
2023-03-10T22:32:13.061Z,99461.94
2023-03-10T22:34:40.130Z,99464.97
2023-03-10T22:37:06.984Z,99463.88
2023-03-10T22:39:33.951Z,99461.81
2023-03-10T22:42:01.007Z,99467.81
2023-03-10T22:44:28.042Z,99468.66
2023-03-10T22:46:55.051Z,99462.53
2023-03-10T22:49:22.310Z,99473.69
2023-03-10T22:51:49.276Z,99463.66
2023-03-10T22:54:16.249Z,99459.97
2023-03-10T22:56:43.276Z,99459.91
2023-03-10T22:59:10.380Z,99452.28
2023-03-10T23:01:37.503Z,99459.09
2023-03-10T23:04:04.668Z,99455.00
2023-03-10T23:06:33.784Z,99463.28
2023-03-10T23:09:00.662Z,99461.44
2023-03-10T23:11:27.673Z,99455.97
2023-03-10T23:13:54.607Z,99450.75
2023-03-10T23:16:23.128Z,99467.88
2023-03-10T23:18:50.176Z,99458.53
2023-03-10T23:21:17.031Z,99466.28
2023-03-10T23:23:44.158Z,99460.84
2023-03-10T23:26:11.762Z,99459.44
2023-03-10T23:28:39.213Z,99451.53
2023-03-10T23:31:06.610Z,99454.72
2023-03-10T23:33:35.110Z,99453.88
2023-03-10T23:36:02.068Z,99449.44
2023-03-10T23:38:29.031Z,99449.44
2023-03-10T23:40:56.089Z,99443.31
2023-03-10T23:43:23.536Z,99449.81
2023-03-10T23:45:50.713Z,99444.28
2023-03-10T23:48:18.509Z,99440.66
2023-03-10T23:50:47.978Z,99448.66
2023-03-10T23:53:17.192Z,99440.38
2023-03-10T23:55:46.435Z,99436.84
2023-03-10T23:58:15.742Z,99435.53
